Time;durP1;ratioP1;P1;durP2;ratioP2;P2;SDS_P1;SDS_P2;PMS_P1;PMS_P2;Temp;Humidity;BMP_temperature;BMP_pressure;BME280_temperature;BME280_humidity;BME280_pressure;Samples;Min_cycle;Max_cycle;Signal;HPM_P1;HPM_P2
2020/12/28 00:00:36;;;;;;;5.20;4.40;;;5.20;80.80;6.60;97042.00;;;;5034900;28;20404;-81
2020/12/28 00:03:04;;;;;;;4.72;4.15;;;5.20;80.20;6.60;97038.00;;;;5034408;28;20416;-81
2020/12/28 00:05:32;;;;;;;4.20;3.80;;;5.20;80.10;6.60;97043.00;;;;5024611;28;20450;-84
2020/12/28 00:07:59;;;;;;;4.40;3.95;;;5.20;81.00;6.50;97038.00;;;;5033213;28;20412;-80
2020/12/28 00:10:27;;;;;;;4.95;3.90;;;5.20;80.20;6.60;97042.00;;;;5025408;28;20429;-80
2020/12/28 00:12:55;;;;;;;4.40;4.00;;;5.20;80.30;6.50;97032.00;;;;5026771;28;21405;-82
2020/12/28 00:15:26;;;;;;;4.97;4.32;;;5.30;80.30;6.60;67720.00;;;;5035169;28;20429;-80
2020/12/28 00:17:55;;;;;;;6.23;4.40;;;5.20;80.40;6.70;67737.00;;;;5025293;28;20437;-88
2020/12/28 00:20:26;;;;;;;5.18;4.60;;;5.30;80.70;6.80;97016.00;;;;5034566;28;20412;-80
2020/12/28 00:22:53;;;;;;;4.85;4.25;;;5.30;81.10;217.30;159552.00;;;;5029510;28;20585;-81
2020/12/28 00:25:22;;;;;;;4.60;4.20;;;5.30;81.10;6.70;97009.00;;;;5021897;28;20781;-84
2020/12/28 00:27:51;;;;;;;4.57;4.10;;;5.30;80.90;6.60;97000.00;;;;5020845;28;20815;-80
2020/12/28 00:30:19;;;;;;;4.15;3.75;;;5.30;81.20;52.70;159482.00;;;;5036409;28;20433;-82
2020/12/28 00:32:46;;;;;;;3.80;3.40;;;5.30;81.30;6.50;67687.00;;;;5036325;28;20424;-81
2020/12/28 00:35:14;;;;;;;3.38;2.55;;;5.40;82.20;6.40;97006.00;;;;5035807;28;20467;-78
2020/12/28 00:37:42;;;;;;;2.60;2.20;;;5.40;82.00;6.40;97002.00;;;;5034026;28;20528;-81
2020/12/28 00:40:11;;;;;;;1.85;1.60;;;5.50;82.50;6.40;96988.00;;;;5033566;28;20939;-79
2020/12/28 00:42:44;;;;;;;1.75;1.30;;;5.60;82.60;6.40;96998.00;;;;5018943;28;20456;-80
2020/12/28 00:45:12;;;;;;;2.40;1.40;;;5.60;82.70;6.50;96988.00;;;;5014502;28;21110;-79
2020/12/28 00:47:40;;;;;;;1.77;1.38;;;5.70;82.70;6.50;96996.00;;;;5020397;28;20803;-79
2020/12/28 00:50:08;;;;;;;2.17;1.40;;;5.80;82.60;6.60;96993.00;;;;5007897;28;20459;-80
2020/12/28 00:52:39;;;;;;;2.30;1.40;;;5.80;82.90;6.60;96993.00;;;;5031265;28;20464;-80
2020/12/28 00:55:07;;;;;;;2.10;1.60;;;5.80;83.00;6.60;96992.00;;;;5017426;28;20524;-82
2020/12/28 00:57:36;;;;;;;2.60;1.50;;;5.80;83.10;6.70;97001.00;;;;5019607;28;20475;-81
2020/12/28 01:00:06;;;;;;;2.05;1.33;;;5.80;83.30;6.70;97002.00;;;;5020917;28;20416;-81
2020/12/28 01:02:48;;;;;;;2.40;1.70;;;5.90;83.50;6.80;96992.00;;;;5015299;28;20517;-80
2020/12/28 01:05:21;;;;;;;1.70;1.40;;;5.90;83.60;6.80;97004.00;;;;5000944;28;20450;-80
2020/12/28 01:07:49;;;;;;;1.70;1.30;;;5.90;83.30;6.80;96968.00;;;;5000986;28;20434;-81
2020/12/28 01:10:26;;;;;;;2.10;1.38;;;6.00;83.40;6.80;96968.00;;;;5026827;28;20410;-81
2020/12/28 01:12:59;;;;;;;2.50;1.50;;;6.10;83.30;6.70;96983.00;;;;5028826;28;20426;-80
2020/12/28 01:15:27;;;;;;;2.00;1.10;;;6.00;83.20;6.80;96969.00;;;;5011741;28;20422;-82
2020/12/28 01:17:55;;;;;;;1.83;1.30;;;6.00;82.90;6.70;96988.00;;;;5031189;28;20540;-84
2020/12/28 01:20:38;;;;;;;1.85;1.30;;;6.00;82.40;6.70;67733.00;;;;5023219;28;20433;-80
2020/12/28 01:23:08;;;;;;;1.93;1.30;;;6.00;82.40;6.70;96981.00;;;;5020290;28;21057;-81
2020/12/28 01:25:47;;;;;;;1.80;1.20;;;5.90;82.60;6.70;96988.00;;;;5026391;28;20560;-83
2020/12/28 01:28:16;;;;;;;1.88;1.15;;;5.90;82.70;6.70;96989.00;;;;5030721;28;20441;-82
2020/12/28 01:30:43;;;;;;;3.50;1.70;;;5.90;82.90;6.70;96991.00;;;;5046209;28;20494;-85
2020/12/28 01:33:35;;;;;;;2.90;1.50;;;5.90;83.10;6.70;96986.00;;;;5028984;28;20500;-81
2020/12/28 01:36:03;;;;;;;2.70;1.80;;;5.90;83.10;6.70;96992.00;;;;5020595;28;20428;-82
2020/12/28 01:38:32;;;;;;;3.38;2.20;;;5.90;83.30;6.80;96984.00;;;;5019521;28;20432;-79
2020/12/28 01:41:00;;;;;;;2.17;1.67;;;5.90;83.50;6.70;96976.00;;;;5019320;28;20516;-80
2020/12/28 01:43:36;;;;;;;2.63;1.70;;;5.90;82.80;6.70;96992.00;;;;5019356;28;20436;-80
2020/12/28 01:46:04;;;;;;;2.13;1.50;;;5.90;83.00;6.60;96992.00;;;;5018430;28;20416;-81
2020/12/28 01:48:41;;;;;;;1.55;1.30;;;5.90;82.80;6.60;96939.00;;;;5018609;28;20936;-80
2020/12/28 01:51:11;;;;;;;2.58;1.30;;;5.90;82.80;6.60;96989.00;;;;5029935;28;20496;-82
2020/12/28 01:53:41;;;;;;;1.90;1.30;;;5.90;82.50;6.70;96993.00;;;;5022538;28;20433;-79
2020/12/28 01:56:15;;;;;;;1.85;1.35;;;5.90;82.70;6.60;96974.00;;;;5023794;28;20450;-81
2020/12/28 01:58:49;;;;;;;2.20;1.20;;;5.90;82.50;6.70;96981.00;;;;5035271;28;20416;-79
2020/12/28 02:01:19;;;;;;;1.58;1.20;;;5.90;82.80;6.70;96968.00;;;;5017149;28;20928;-80
2020/12/28 02:03:48;;;;;;;2.17;1.33;;;5.90;82.80;6.60;96972.00;;;;5030528;28;20421;-82
2020/12/28 02:06:26;;;;;;;2.30;1.17;;;5.90;82.40;6.70;96965.00;;;;5038986;28;20452;-80
2020/12/28 02:08:53;;;;;;;2.70;1.30;;;5.90;82.40;6.60;96967.00;;;;5021341;28;20928;-79
2020/12/28 02:11:21;;;;;;;2.10;1.50;;;5.80;82.40;6.60;96989.00;;;;5027953;28;20504;-79
2020/12/28 02:13:49;;;;;;;2.55;1.70;;;5.80;82.70;6.60;96970.00;;;;5028429;28;20418;-79
2020/12/28 02:16:38;;;;;;;2.65;1.50;;;5.80;82.80;6.60;96959.00;;;;5023001;28;20435;-81
2020/12/28 02:19:11;;;;;;;2.17;1.60;;;5.80;82.80;6.70;67729.00;;;;5017965;28;20416;-79
2020/12/28 02:21:45;;;;;;;2.40;1.60;;;5.90;83.00;6.60;96958.00;;;;5031025;28;20785;-79
2020/12/28 02:24:16;;;;;;;2.20;1.60;;;5.90;82.80;6.60;96946.00;;;;5012205;28;20421;-81
2020/12/28 02:26:47;;;;;;;3.10;2.17;;;5.90;82.80;6.70;96963.00;;;;5019735;28;20416;-80
2020/12/28 02:29:15;;;;;;;2.50;2.10;;;5.90;83.10;6.70;96959.00;;;;5035456;28;20428;-81
2020/12/28 02:31:43;;;;;;;3.17;2.40;;;5.90;83.30;6.80;96949.00;;;;5021191;28;20944;-81
2020/12/28 02:34:31;;;;;;;3.30;2.70;;;5.90;83.60;6.70;96970.00;;;;5021215;28;20424;-80
2020/12/28 02:37:07;;;;;;;2.95;2.50;;;5.90;83.50;6.70;96945.00;;;;5022906;28;20487;-80
2020/12/28 02:39:50;;;;;;;3.25;2.53;;;5.90;83.90;6.80;67740.00;;;;5022578;28;20432;-81
2020/12/28 02:42:18;;;;;;;2.63;2.38;;;5.90;84.00;6.80;96959.00;;;;5022768;28;20436;-80
2020/12/28 02:45:04;;;;;;;2.70;2.40;;;5.90;83.60;6.80;96939.00;;;;5026722;28;20435;-85
2020/12/28 02:47:50;;;;;;;2.25;2.05;;;6.00;84.00;6.80;96919.00;;;;5035637;28;20471;-79
2020/12/28 02:50:36;;;;;;;2.40;1.90;;;5.90;83.70;6.70;96953.00;;;;5022231;28;20443;-80
2020/12/28 02:53:22;;;;;;;2.42;1.80;;;5.90;83.30;6.60;96953.00;;;;5035714;28;20459;-80
2020/12/28 02:56:08;;;;;;;2.88;2.10;;;5.80;84.00;6.60;96959.00;;;;5021523;28;20479;-79
2020/12/28 02:58:54;;;;;;;1.85;1.60;;;5.80;83.70;6.50;96941.00;;;;5022489;28;20813;-82
2020/12/28 03:01:40;;;;;;;1.73;1.40;;;5.80;83.60;6.50;96934.00;;;;5029015;28;20435;-81
2020/12/28 03:04:26;;;;;;;2.10;1.30;;;5.80;83.00;6.50;96951.00;;;;5029715;28;20431;-80
2020/12/28 03:07:12;;;;;;;1.55;1.10;;;5.70;83.10;6.50;96956.00;;;;5018414;28;20504;-81
2020/12/28 03:10:00;;;;;;;1.50;1.20;;;5.80;83.50;6.50;96886.00;;;;5021035;28;20431;-78
2020/12/28 03:12:46;;;;;;;1.60;1.03;;;5.80;83.50;6.50;96967.00;;;;5018367;28;20574;-79
2020/12/28 03:15:32;;;;;;;1.70;1.30;;;5.70;83.30;6.60;96961.00;;;;5021769;28;20471;-84
2020/12/28 03:18:18;;;;;;;1.42;1.20;;;5.70;83.60;6.60;96946.00;;;;5038644;28;20479;-84
2020/12/28 03:21:04;;;;;;;1.80;1.05;;;5.80;83.60;6.70;96950.00;;;;5035129;28;20436;-81
2020/12/28 03:23:50;;;;;;;2.10;1.10;;;5.80;83.40;6.70;96941.00;;;;5028485;28;20524;-81
2020/12/28 03:26:37;;;;;;;1.45;1.10;;;5.80;83.50;6.70;96948.00;;;;5031873;28;20477;-82
2020/12/28 03:29:32;;;;;;;2.07;1.20;;;5.90;83.30;6.70;96940.00;;;;5038331;28;20538;-79
2020/12/28 03:32:18;;;;;;;1.80;1.10;;;5.90;82.70;6.70;67751.00;;;;5028287;28;20455;-82
2020/12/28 03:35:04;;;;;;;1.80;0.98;;;5.90;83.40;6.80;96947.00;;;;5038604;28;20440;-81
2020/12/28 03:37:50;;;;;;;1.67;0.90;;;5.90;82.90;6.70;96933.00;;;;5038794;28;20484;-80
2020/12/28 03:40:37;;;;;;;1.50;1.00;;;5.90;82.40;6.70;96928.00;;;;5037770;28;20440;-80
2020/12/28 03:43:23;;;;;;;1.60;1.15;;;5.90;82.10;6.80;96929.00;;;;5022138;28;20438;-79
2020/12/28 03:46:10;;;;;;;2.70;0.95;;;5.90;82.30;6.80;67769.00;;;;5019775;28;20488;-80
2020/12/28 03:48:56;;;;;;;1.70;1.05;;;5.90;82.20;6.80;96933.00;;;;5019685;28;20487;-79
2020/12/28 03:51:41;;;;;;;2.20;1.00;;;6.00;81.90;6.80;96953.00;;;;5019724;28;20801;-79
2020/12/28 03:54:27;;;;;;;1.50;1.02;;;6.00;82.20;6.80;96923.00;;;;5007155;28;20946;-80
2020/12/28 03:57:14;;;;;;;2.40;1.20;;;6.00;82.40;7.00;96919.00;;;;5023022;28;20424;-80
2020/12/28 04:00:01;;;;;;;2.05;1.30;;;6.00;82.60;7.10;96927.00;;;;5020228;28;20483;-82
2020/12/28 04:02:41;;;;;;;2.30;1.70;;;6.00;82.70;7.10;96924.00;;;;5029762;28;20432;-80
2020/12/28 04:05:27;;;;;;;2.92;1.77;;;6.00;82.80;7.20;96926.00;;;;5028517;28;20424;-81
2020/12/28 04:08:13;;;;;;;3.47;2.20;;;6.10;83.00;7.20;96910.00;;;;5030534;28;20489;-80
2020/12/28 04:11:13;;;;;;;2.00;1.80;;;6.10;82.70;7.10;96942.00;;;;5027299;28;20440;-81
2020/12/28 04:13:55;;;;;;;2.45;2.25;;;6.10;82.80;7.10;96929.00;;;;5031676;28;20507;-83
2020/12/28 04:16:24;;;;;;;2.50;2.10;;;6.10;82.80;7.10;96954.00;;;;5030331;28;20432;-83
2020/12/28 04:18:51;;;;;;;2.65;2.25;;;6.10;83.00;7.10;96935.00;;;;5024250;28;20452;-85
2020/12/28 04:21:19;;;;;;;4.10;2.50;;;6.10;83.00;7.20;96948.00;;;;5017526;28;20515;-79
2020/12/28 04:23:46;;;;;;;2.63;2.20;;;6.10;83.30;7.00;96943.00;;;;5012726;28;21019;-79
2020/12/28 04:26:13;;;;;;;3.17;2.15;;;6.10;82.80;7.00;96929.00;;;;5021618;28;20433;-80
2020/12/28 04:28:41;;;;;;;3.10;2.40;;;6.10;82.70;217.30;159702.00;;;;5025566;28;20417;-80
2020/12/28 04:31:10;;;;;;;2.88;2.22;;;6.10;82.70;7.10;96911.00;;;;5013115;28;20420;-80
2020/12/28 04:33:39;;;;;;;2.60;2.20;;;6.10;82.90;7.00;96913.00;;;;5014474;28;20781;-80
2020/12/28 04:36:06;;;;;;;3.13;2.27;;;6.10;82.70;7.10;96909.00;;;;5012471;28;20429;-80
2020/12/28 04:38:33;;;;;;;2.53;2.10;;;6.10;83.00;7.20;96931.00;;;;5025533;28;20522;-79
2020/12/28 04:41:01;;;;;;;3.35;2.00;;;6.10;83.10;7.10;96918.00;;;;5016986;28;20759;-79
2020/12/28 04:43:29;;;;;;;1.80;1.47;;;6.10;82.70;7.10;96904.00;;;;5029559;28;20525;-81
2020/12/28 04:46:02;;;;;;;2.40;1.90;;;6.10;82.30;217.30;159740.00;;;;5029307;28;20436;-80
2020/12/28 04:48:32;;;;;;;2.65;1.80;;;6.10;82.30;7.10;96920.00;;;;5014457;28;20948;-81
2020/12/28 04:51:01;;;;;;;2.47;1.70;;;6.20;82.30;52.70;159708.00;;;;5013688;28;20483;-80
2020/12/28 04:53:29;;;;;;;2.22;1.60;;;6.10;82.00;7.10;96921.00;;;;5013747;28;20540;-79
2020/12/28 04:55:57;;;;;;;1.70;1.30;;;6.10;82.10;7.10;96918.00;;;;5026841;28;20418;-79
2020/12/28 04:58:25;;;;;;;1.90;1.50;;;6.20;82.00;7.20;96924.00;;;;5013074;28;20515;-81
2020/12/28 05:00:58;;;;;;;2.20;1.60;;;6.20;82.00;7.20;96936.00;;;;5026029;28;20426;-80
2020/12/28 05:03:26;;;;;;;1.80;1.40;;;6.20;82.00;7.20;96935.00;;;;5022733;28;20424;-80
2020/12/28 05:05:55;;;;;;;2.00;1.60;;;6.20;81.90;7.30;96947.00;;;;5032143;28;20431;-80
2020/12/28 05:08:24;;;;;;;2.00;1.40;;;6.20;81.80;7.10;96939.00;;;;5006342;28;21056;-82
2020/12/28 05:10:54;;;;;;;2.30;1.50;;;6.20;81.30;7.20;96946.00;;;;5038888;28;20424;-83
2020/12/28 05:13:21;;;;;;;2.30;1.30;;;6.20;81.20;7.20;96944.00;;;;5026394;28;20849;-82
2020/12/28 05:15:50;;;;;;;2.00;1.27;;;6.20;81.00;7.10;96955.00;;;;5036689;28;20462;-81
2020/12/28 05:18:19;;;;;;;2.53;1.40;;;6.20;80.80;7.20;96934.00;;;;5033559;28;20434;-79
2020/12/28 05:20:48;;;;;;;2.50;1.30;;;6.20;80.90;7.40;96926.00;;;;5035057;28;20429;-80
2020/12/28 05:23:18;;;;;;;2.58;1.60;;;6.20;81.20;7.50;96914.00;;;;5035649;28;20919;-80
2020/12/28 05:25:49;;;;;;;1.50;1.30;;;6.20;81.50;7.50;96911.00;;;;5034334;28;20440;-81
2020/12/28 05:28:20;;;;;;;2.20;1.48;;;6.30;81.20;7.50;96918.00;;;;5026791;28;20496;-81
2020/12/28 05:30:50;;;;;;;2.13;1.30;;;6.30;80.70;7.50;96907.00;;;;5028090;28;20447;-80
2020/12/28 05:33:18;;;;;;;2.65;1.40;;;6.30;80.60;7.60;96911.00;;;;5028587;28;20488;-81
2020/12/28 05:35:46;;;;;;;2.08;1.30;;;6.30;80.60;7.60;96910.00;;;;5020225;28;20439;-81
2020/12/28 05:38:14;;;;;;;3.47;1.20;;;6.30;80.30;7.60;96906.00;;;;5014365;28;20484;-82
2020/12/28 05:40:42;;;;;;;2.50;1.50;;;6.30;80.20;7.60;96912.00;;;;5016190;28;20429;-81
2020/12/28 05:43:10;;;;;;;1.70;1.20;;;6.30;80.20;7.50;96909.00;;;;5018680;28;20433;-82
2020/12/28 05:45:46;;;;;;;2.00;1.20;;;6.30;80.10;7.50;96931.00;;;;5017788;28;20425;-83
2020/12/28 05:48:16;;;;;;;3.35;1.30;;;6.30;80.10;7.50;96934.00;;;;5016928;28;20432;-82
2020/12/28 05:50:44;;;;;;;3.80;1.60;;;6.30;79.90;7.50;96920.00;;;;5018748;28;20497;-80
2020/12/28 05:53:13;;;;;;;2.20;1.50;;;6.40;80.30;7.60;96921.00;;;;5019088;28;20834;-81
2020/12/28 05:55:40;;;;;;;3.00;1.65;;;6.20;80.10;7.50;96893.00;;;;5020789;28;20470;-82
2020/12/28 05:58:09;;;;;;;2.90;1.40;;;6.20;80.00;7.60;96913.00;;;;5017719;28;20424;-82
2020/12/28 06:00:39;;;;;;;2.47;1.20;;;6.20;80.30;7.60;96893.00;;;;5020630;28;20431;-80
2020/12/28 06:03:10;;;;;;;2.70;1.50;;;6.20;80.20;7.50;96899.00;;;;5018943;28;20471;-82
2020/12/28 06:05:37;;;;;;;2.22;1.50;;;6.20;80.00;7.50;96886.00;;;;5019755;28;20457;-82
2020/12/28 06:08:05;;;;;;;2.55;1.63;;;6.20;80.00;7.40;96922.00;;;;5019925;28;20436;-79
2020/12/28 06:10:35;;;;;;;2.90;1.70;;;6.20;80.20;7.50;96911.00;;;;5021198;28;20435;-81
2020/12/28 06:13:03;;;;;;;2.53;1.47;;;6.10;80.40;217.30;159861.00;;;;5019461;28;20514;-81
2020/12/28 06:15:31;;;;;;;2.10;1.60;;;6.10;80.00;7.50;96941.00;;;;5019405;28;20433;-80
2020/12/28 06:17:58;;;;;;;3.42;1.40;;;6.10;80.00;7.40;96918.00;;;;5029122;28;20438;-81
2020/12/28 06:20:31;;;;;;;3.87;1.80;;;6.20;80.10;7.50;96933.00;;;;5031234;28;20909;-81
2020/12/28 06:23:05;;;;;;;2.30;1.70;;;6.20;80.00;7.50;96938.00;;;;5019272;28;20436;-82
2020/12/28 06:25:33;;;;;;;3.90;2.00;;;6.20;79.90;7.40;96912.00;;;;5018140;28;20424;-82
2020/12/28 06:28:01;;;;;;;4.28;2.05;;;6.20;79.90;7.50;96934.00;;;;5018783;28;20448;-81
2020/12/28 06:30:28;;;;;;;2.85;1.60;;;6.20;79.90;7.50;96945.00;;;;5019043;28;20432;-78
2020/12/28 06:33:04;;;;;;;3.40;1.50;;;6.20;79.80;7.50;96937.00;;;;5012895;28;20509;-80
2020/12/28 06:35:33;;;;;;;3.10;1.77;;;6.20;79.50;7.40;96949.00;;;;5012385;28;20423;-80
2020/12/28 06:38:02;;;;;;;3.33;1.60;;;6.30;79.60;7.40;96959.00;;;;5016924;28;20472;-81
2020/12/28 06:40:31;;;;;;;3.40;1.50;;;6.20;79.40;7.40;96967.00;;;;5020173;28;20525;-80
2020/12/28 06:43:13;;;;;;;3.60;1.48;;;6.20;79.20;7.40;96962.00;;;;5016586;28;20421;-80
2020/12/28 06:45:42;;;;;;;4.30;1.37;;;6.10;79.10;7.50;96965.00;;;;5038929;28;20476;-81
2020/12/28 06:48:18;;;;;;;3.07;1.30;;;6.20;79.20;7.50;96965.00;;;;5039660;28;20404;-81
2020/12/28 06:50:49;;;;;;;2.00;1.20;;;6.30;78.80;7.50;96958.00;;;;5030474;28;20452;-82
2020/12/28 06:53:20;;;;;;;3.22;1.40;;;6.20;78.40;7.60;96953.00;;;;5028694;28;20788;-82
2020/12/28 06:55:47;;;;;;;3.28;1.45;;;6.30;78.40;7.60;96964.00;;;;5017966;28;20461;-82
2020/12/28 06:58:15;;;;;;;2.20;1.40;;;6.40;78.20;7.60;96964.00;;;;5021096;28;20499;-81
2020/12/28 07:00:42;;;;;;;3.03;1.60;;;6.30;78.10;7.60;96956.00;;;;5017015;28;20470;-82
2020/12/28 07:03:13;;;;;;;2.23;1.70;;;6.30;78.30;7.60;96950.00;;;;5019534;28;20432;-81
2020/12/28 07:05:42;;;;;;;5.10;1.60;;;6.20;78.60;7.50;96963.00;;;;5020652;28;20486;-81
2020/12/28 07:08:10;;;;;;;3.90;1.60;;;6.20;78.40;7.50;96967.00;;;;5022050;28;20417;-82
2020/12/28 07:10:37;;;;;;;3.70;1.50;;;6.10;79.20;7.50;96962.00;;;;5013700;28;20427;-81
2020/12/28 07:13:06;;;;;;;2.90;1.70;;;6.20;78.80;7.50;96964.00;;;;5009847;28;20424;-81
2020/12/28 07:15:34;;;;;;;3.50;1.40;;;6.10;79.00;7.50;96960.00;;;;5018882;28;20428;-81
2020/12/28 07:18:05;;;;;;;3.17;1.48;;;6.10;79.20;7.50;96951.00;;;;5037542;28;20932;-80
2020/12/28 07:20:33;;;;;;;5.20;1.80;;;6.10;79.30;7.40;96946.00;;;;5037364;28;20495;-82
2020/12/28 07:23:01;;;;;;;4.60;1.83;;;6.10;79.00;7.40;96933.00;;;;5023091;28;20431;-82
2020/12/28 07:25:29;;;;;;;2.67;1.50;;;6.10;78.70;7.40;96943.00;;;;5016548;28;20427;-83
2020/12/28 07:27:57;;;;;;;4.18;1.80;;;6.10;79.00;7.40;96948.00;;;;5018629;28;20512;-83
2020/12/28 07:30:24;;;;;;;3.70;1.80;;;6.10;78.80;7.30;96942.00;;;;5027349;28;20952;-82
2020/12/28 07:32:57;;;;;;;2.20;1.30;;;6.10;78.70;7.30;96937.00;;;;5028990;28;20800;-82
2020/12/28 07:35:28;;;;;;;3.65;1.52;;;6.00;78.10;7.20;96951.00;;;;5029860;28;20440;-83
2020/12/28 07:37:58;;;;;;;2.73;1.60;;;6.00;78.10;7.20;96949.00;;;;5028249;28;21181;-83
2020/12/28 07:40:26;;;;;;;3.70;1.70;;;5.90;78.10;7.20;96965.00;;;;5020029;28;20424;-82
2020/12/28 07:42:55;;;;;;;3.27;1.40;;;5.90;78.40;7.20;96937.00;;;;5028120;28;20457;-83
2020/12/28 07:45:22;;;;;;;3.70;1.70;;;5.90;78.40;52.70;159813.00;;;;5033311;28;20442;-81
2020/12/28 07:47:59;;;;;;;3.28;1.90;;;5.90;78.40;7.40;96945.00;;;;5035429;28;20409;-81
2020/12/28 07:50:27;;;;;;;7.53;2.25;;;5.90;78.70;7.50;96964.00;;;;5019513;28;20432;-83
2020/12/28 07:53:03;;;;;;;5.30;1.90;;;6.00;79.70;7.50;67932.00;;;;5032877;28;20432;-83
2020/12/28 07:55:40;;;;;;;4.47;2.13;;;6.00;79.30;7.60;96959.00;;;;5034471;28;20441;-81
2020/12/28 07:58:30;;;;;;;3.30;1.80;;;6.10;78.90;7.70;96979.00;;;;5032588;28;20771;-82
2020/12/28 08:01:02;;;;;;;3.97;2.08;;;6.10;78.70;7.80;96971.00;;;;5027653;28;20411;-83
2020/12/28 08:03:37;;;;;;;4.38;2.10;;;6.30;79.30;7.90;96979.00;;;;5023639;28;20432;-81
2020/12/28 08:06:08;;;;;;;3.92;2.28;;;6.40;79.20;8.00;96993.00;;;;5023866;28;20492;-82
2020/12/28 08:08:35;;;;;;;4.50;2.00;;;6.40;78.90;8.00;97004.00;;;;5028076;28;20428;-83
2020/12/28 08:11:05;;;;;;;2.60;1.80;;;6.40;78.50;8.00;96991.00;;;;5029808;28;20487;-82
2020/12/28 08:13:35;;;;;;;5.63;1.92;;;6.50;78.50;8.00;96992.00;;;;5030230;28;20421;-82
2020/12/28 08:16:09;;;;;;;5.60;2.40;;;6.40;78.10;8.00;96986.00;;;;5019212;28;20425;-80
2020/12/28 08:18:47;;;;;;;4.88;2.60;;;6.40;78.70;8.10;96984.00;;;;5015613;28;20429;-83
2020/12/28 08:21:15;;;;;;;5.18;2.60;;;6.40;78.90;8.10;96983.00;;;;5028506;28;20460;-83
2020/12/28 08:23:51;;;;;;;3.42;2.03;;;6.60;80.90;8.10;97006.00;;;;5032648;28;20882;-82
2020/12/28 08:26:22;;;;;;;3.20;2.25;;;6.60;80.00;8.10;96990.00;;;;5030407;28;20424;-80
2020/12/28 08:28:52;;;;;;;5.10;2.50;;;6.50;78.10;8.20;97000.00;;;;5026655;28;20483;-84
2020/12/28 08:31:25;;;;;;;3.30;2.20;;;6.60;79.00;8.20;96993.00;;;;5019846;28;20426;-83
2020/12/28 08:34:07;;;;;;;6.25;2.40;;;6.60;77.60;8.30;96991.00;;;;5099862;28;20391;-82
2020/12/28 08:36:39;;;;;;;4.32;2.60;;;6.70;77.20;8.30;96977.00;;;;5059815;28;20524;-80
2020/12/28 08:39:15;;;;;;;5.15;2.10;;;6.70;76.20;8.30;96981.00;;;;5055066;28;20431;-81
2020/12/28 08:41:50;;;;;;;4.72;2.03;;;6.70;74.90;8.40;96975.00;;;;5075162;28;20445;-80
2020/12/28 08:44:26;;;;;;;4.20;2.40;;;6.80;75.00;8.50;96960.00;;;;5072617;28;20909;-82
2020/12/28 08:47:00;;;;;;;4.88;2.63;;;6.80;75.40;8.60;96941.00;;;;5081427;28;20453;-81
2020/12/28 08:49:30;;;;;;;6.78;3.42;;;6.80;76.00;8.80;96956.00;;;;5062582;28;20437;-82
2020/12/28 08:52:08;;;;;;;4.53;2.60;;;7.00;76.40;8.80;96944.00;;;;5065243;28;20429;-81
2020/12/28 08:54:35;;;;;;;3.42;2.30;;;7.00;75.80;8.80;96945.00;;;;5084075;28;20422;-81
2020/12/28 08:57:03;;;;;;;3.87;2.40;;;7.00;74.40;8.70;96930.00;;;;5086201;28;20414;-80
2020/12/28 08:59:31;;;;;;;2.80;2.15;;;6.90;75.00;8.70;96944.00;;;;5087534;28;20420;-79
2020/12/28 09:02:16;;;;;;;3.20;2.38;;;6.80;75.50;8.70;96956.00;;;;5087775;28;20430;-81
2020/12/28 09:04:44;;;;;;;3.97;2.90;;;6.90;75.90;8.70;96936.00;;;;5072101;28;20410;-79
2020/12/28 09:07:13;;;;;;;6.10;3.08;;;6.90;76.00;8.70;96949.00;;;;5071446;28;20418;-80
2020/12/28 09:09:42;;;;;;;4.20;3.17;;;6.90;76.30;8.70;96964.00;;;;5086182;28;20426;-80
2020/12/28 09:12:11;;;;;;;5.38;3.40;;;6.80;76.30;8.80;96974.00;;;;5084709;28;20410;-82
2020/12/28 09:14:39;;;;;;;5.20;3.60;;;6.90;76.50;8.80;96953.00;;;;5071782;28;20403;-82
2020/12/28 09:17:15;;;;;;;3.75;3.35;;;6.90;76.60;8.90;96954.00;;;;5072703;28;20461;-82
2020/12/28 09:19:44;;;;;;;4.63;3.70;;;7.00;76.70;9.00;96970.00;;;;5072454;28;20433;-81
2020/12/28 09:22:11;;;;;;;4.80;3.10;;;7.00;76.40;9.00;96958.00;;;;5089750;28;20510;-83
2020/12/28 09:24:39;;;;;;;6.30;3.63;;;7.00;76.40;9.10;96960.00;;;;5073027;28;20403;-83
2020/12/28 09:27:06;;;;;;;4.57;3.10;;;7.10;76.50;9.20;96969.00;;;;5073154;28;20436;-82
2020/12/28 09:29:35;;;;;;;6.10;3.65;;;7.20;76.00;9.10;96961.00;;;;5070738;28;20433;-81
2020/12/28 09:32:03;;;;;;;4.10;3.70;;;7.20;75.70;9.20;96959.00;;;;5072214;28;20410;-84
2020/12/28 09:34:30;;;;;;;4.10;3.63;;;7.20;75.70;9.20;96947.00;;;;5072342;28;20440;-83
2020/12/28 09:37:04;;;;;;;4.50;4.10;;;7.20;76.00;9.30;96959.00;;;;5072121;28;20437;-81
2020/12/28 09:39:31;;;;;;;3.80;3.50;;;7.30;75.80;9.30;96970.00;;;;5074690;28;20438;-84
2020/12/28 09:41:59;;;;;;;3.72;3.42;;;7.30;74.70;9.30;96977.00;;;;5068654;28;20416;-83
2020/12/28 09:44:29;;;;;;;3.70;3.40;;;7.30;74.80;9.30;96971.00;;;;5047366;28;20450;-83
2020/12/28 09:46:57;;;;;;;4.00;2.80;;;7.30;74.40;9.20;96984.00;;;;5057239;28;20443;-82
2020/12/28 09:49:25;;;;;;;2.90;2.70;;;7.30;74.20;9.20;96968.00;;;;5056049;28;20473;-81
2020/12/28 09:51:54;;;;;;;3.40;2.75;;;7.20;74.30;9.10;96967.00;;;;5058737;28;20406;-82
2020/12/28 09:54:24;;;;;;;3.17;2.70;;;7.20;73.90;9.10;96982.00;;;;5045485;28;20415;-82
2020/12/28 09:57:05;;;;;;;2.80;2.60;;;7.20;74.20;9.00;96972.00;;;;5046331;28;20426;-82
2020/12/28 09:59:35;;;;;;;3.30;3.00;;;7.20;73.50;8.90;96962.00;;;;5039303;28;20761;-82
2020/12/28 10:02:02;;;;;;;4.40;3.00;;;7.10;73.40;8.90;96976.00;;;;5049024;28;20419;-83
2020/12/28 10:04:30;;;;;;;3.10;2.80;;;7.10;73.70;9.00;96964.00;;;;5058439;28;20423;-82
2020/12/28 10:09:41;;;;;;;3.30;2.90;;;7.20;73.40;9.10;96976.00;;;;5040384;28;20445;-80
2020/12/28 10:12:09;;;;;;;4.03;3.03;;;7.30;73.30;9.00;96968.00;;;;5039723;28;20427;-80
2020/12/28 10:14:36;;;;;;;3.40;2.90;;;7.30;73.40;9.10;96972.00;;;;5035679;28;20456;-80
2020/12/28 10:17:03;;;;;;;3.20;2.90;;;7.20;74.00;9.00;96982.00;;;;5039020;28;20863;-80
2020/12/28 10:19:31;;;;;;;3.00;2.60;;;7.20;73.70;9.10;96962.00;;;;5040278;28;20463;-81
2020/12/28 10:22:02;;;;;;;3.35;3.05;;;7.20;74.40;9.20;96958.00;;;;5044503;28;20471;-82
2020/12/28 10:24:29;;;;;;;3.90;3.00;;;7.20;74.30;9.20;96952.00;;;;5053304;28;20542;-81
2020/12/28 10:26:58;;;;;;;3.70;2.80;;;7.20;74.50;9.20;96933.00;;;;5052230;28;20408;-80
2020/12/28 10:29:25;;;;;;;3.50;2.40;;;7.30;74.10;9.40;96946.00;;;;5049946;28;20419;-80
2020/12/28 10:31:57;;;;;;;3.92;3.13;;;7.30;73.90;9.50;96962.00;;;;5053332;28;20481;-80
2020/12/28 10:34:25;;;;;;;3.30;3.00;;;7.40;73.80;9.60;96946.00;;;;5061292;28;20424;-81
2020/12/28 10:36:52;;;;;;;3.70;3.10;;;7.50;73.80;9.60;96940.00;;;;5065895;28;20850;-82
2020/12/28 10:39:20;;;;;;;3.60;3.30;;;7.50;72.30;9.70;96927.00;;;;5031768;28;20414;-82
2020/12/28 10:41:47;;;;;;;4.20;3.50;;;7.60;72.80;9.80;96925.00;;;;5047005;28;20479;-79
2020/12/28 10:44:18;;;;;;;4.07;3.63;;;7.70;72.70;10.00;96942.00;;;;5040060;28;20426;-79
2020/12/28 10:46:46;;;;;;;3.92;3.20;;;7.80;72.10;10.10;96937.00;;;;5022669;28;20498;-79
2020/12/28 10:49:13;;;;;;;6.40;3.10;;;8.00;71.80;10.20;96946.00;;;;5043364;28;20431;-80
2020/12/28 10:51:44;;;;;;;3.10;2.60;;;8.00;70.80;10.40;96943.00;;;;5046396;28;20465;-78
2020/12/28 10:54:12;;;;;;;4.10;2.15;;;8.20;70.20;10.50;96925.00;;;;5041531;28;20505;-83
2020/12/28 10:56:40;;;;;;;2.72;2.15;;;8.30;69.20;10.60;96922.00;;;;5036769;28;20929;-80
2020/12/28 10:59:12;;;;;;;3.50;2.58;;;8.40;68.60;10.70;96909.00;;;;5039579;28;20441;-79
2020/12/28 11:01:40;;;;;;;3.20;2.67;;;8.50;68.40;10.70;96904.00;;;;5054404;28;20459;-79
2020/12/28 11:04:07;;;;;;;3.25;2.85;;;8.50;68.30;10.60;96891.00;;;;5057229;28;20432;-79
2020/12/28 11:06:41;;;;;;;3.10;2.53;;;8.50;69.20;10.60;96910.00;;;;5039550;28;20421;-80
2020/12/28 11:09:09;;;;;;;2.97;2.60;;;8.40;69.20;10.50;96911.00;;;;5048741;28;20512;-80
2020/12/28 11:11:36;;;;;;;2.70;2.50;;;8.40;69.50;10.60;96902.00;;;;5055394;28;20516;-79
2020/12/28 11:14:04;;;;;;;2.70;2.50;;;8.50;69.80;10.70;96886.00;;;;5060136;28;20424;-84
2020/12/28 11:16:32;;;;;;;3.17;2.88;;;8.40;69.20;10.70;96895.00;;;;5052578;28;20487;-80
2020/12/28 11:19:00;;;;;;;2.78;2.50;;;8.50;69.30;10.60;96898.00;;;;5068770;28;20445;-80
2020/12/28 11:21:28;;;;;;;4.03;2.80;;;8.40;69.30;10.50;96886.00;;;;5069598;28;20445;-83
2020/12/28 11:23:59;;;;;;;4.20;3.28;;;8.30;69.50;10.50;96886.00;;;;5064681;28;20433;-79
2020/12/28 11:26:27;;;;;;;3.40;3.10;;;8.30;70.30;10.60;96882.00;;;;5050902;28;20989;-79
2020/12/28 11:28:55;;;;;;;4.20;3.28;;;8.40;69.80;10.60;96887.00;;;;5055127;28;20429;-82
2020/12/28 11:31:48;;;;;;;3.53;3.22;;;8.40;69.50;10.70;96889.00;;;;5057972;28;20397;-82
2020/12/28 11:34:18;;;;;;;3.00;2.70;;;8.40;68.60;10.70;96888.00;;;;5056109;28;20451;-81